Time;durP1;ratioP1;P1;durP2;ratioP2;P2;SDS_P1;SDS_P2;PMS_P1;PMS_P2;Temp;Humidity;BMP_temperature;BMP_pressure;BME280_temperature;BME280_humidity;BME280_pressure;Samples;Min_cycle;Max_cycle;Signal;HPM_P1;HPM_P2
2021/07/15 00:00:19;;;;;;;34.08;23.10;;;19.90;99.90;;;;;;5003119;28;20042;-67
2021/07/15 00:02:45;;;;;;;33.50;22.25;;;19.90;99.90;;;;;;5002860;28;20112;-67
2021/07/15 00:05:13;;;;;;;33.40;23.38;;;19.90;99.90;;;;;;4995569;28;20073;-68
2021/07/15 00:07:39;;;;;;;28.27;20.80;;;19.90;99.90;;;;;;4995953;28;20042;-67
2021/07/15 00:10:21;;;;;;;26.85;21.52;;;19.90;99.90;;;;;;5003429;28;20046;-68
2021/07/15 00:12:49;;;;;;;34.55;23.67;;;19.90;99.90;;;;;;5003288;28;20073;-67
2021/07/15 00:15:17;;;;;;;29.98;22.98;;;19.90;99.90;;;;;;4989288;28;20056;-67
2021/07/15 00:17:43;;;;;;;34.03;21.38;;;19.90;99.90;;;;;;5003489;28;20050;-67
2021/07/15 00:20:13;;;;;;;34.33;20.58;;;19.80;99.90;;;;;;5003264;28;20043;-68
2021/07/15 00:22:39;;;;;;;38.40;24.02;;;19.80;99.90;;;;;;5001484;28;20106;-67
2021/07/15 00:25:12;;;;;;;27.45;20.38;;;19.80;99.90;;;;;;4994822;28;20507;-67
2021/07/15 00:27:38;;;;;;;26.80;21.23;;;19.80;99.90;;;;;;4987955;28;20047;-67
2021/07/15 00:30:06;;;;;;;30.63;22.92;;;19.80;99.90;;;;;;4992408;28;20042;-67
2021/07/15 00:32:32;;;;;;;;;;;19.80;99.90;;;;;;4994046;28;20102;-67
2021/07/15 00:34:57;;;;;;;26.73;20.20;;;19.80;99.90;;;;;;5004332;28;19921;-68
2021/07/15 00:37:23;;;;;;;31.52;20.15;;;19.70;99.90;;;;;;5007162;28;20045;-67
2021/07/15 00:39:49;;;;;;;33.95;22.63;;;19.60;99.90;;;;;;5007400;28;20046;-67
2021/07/15 00:42:16;;;;;;;30.30;21.90;;;19.70;99.90;;;;;;5002317;28;20053;-67
2021/07/15 00:44:42;;;;;;;36.03;23.38;;;19.60;99.90;;;;;;5007278;28;20039;-67
2021/07/15 00:47:07;;;;;;;36.45;24.05;;;19.60;99.90;;;;;;5006427;28;20104;-67
2021/07/15 00:49:33;;;;;;;38.63;24.17;;;19.60;99.90;;;;;;5006940;28;20121;-67
2021/07/15 00:51:59;;;;;;;33.65;23.70;;;19.60;99.90;;;;;;5002210;28;20042;-67
2021/07/15 00:54:25;;;;;;;38.60;24.83;;;19.50;99.90;;;;;;4994140;28;20042;-67
2021/07/15 00:56:52;;;;;;;35.17;23.13;;;19.50;99.90;;;;;;5001140;28;20046;-68
2021/07/15 00:59:21;;;;;;;30.45;21.42;;;19.50;99.90;;;;;;5006835;28;20137;-67
2021/07/15 01:01:47;;;;;;;34.33;23.10;;;19.50;99.90;;;;;;5004446;28;20053;-67
2021/07/15 01:04:14;;;;;;;30.67;20.48;;;19.50;99.90;;;;;;5001605;28;20048;-68
2021/07/15 01:06:40;;;;;;;35.00;22.63;;;19.50;99.90;;;;;;5006450;28;20034;-67
2021/07/15 01:09:06;;;;;;;37.10;23.30;;;19.50;99.90;;;;;;5006700;28;20121;-67
2021/07/15 01:11:50;;;;;;;36.80;21.75;;;19.50;99.90;;;;;;5001790;28;20116;-67
2021/07/15 01:14:25;;;;;;;38.15;22.27;;;19.40;99.90;;;;;;5000246;28;20042;-68
2021/07/15 01:16:57;;;;;;;36.70;24.58;;;19.50;99.90;;;;;;4990636;28;20050;-67
2021/07/15 01:19:25;;;;;;;36.60;24.35;;;19.40;99.90;;;;;;5000079;28;20053;-67
2021/07/15 01:22:17;;;;;;;37.03;23.45;;;19.40;99.90;;;;;;5000034;28;20057;-67
2021/07/15 01:24:46;;;;;;;43.90;25.05;;;19.40;99.90;;;;;;4998707;28;20081;-67
2021/07/15 01:27:27;;;;;;;40.80;22.83;;;19.50;99.90;;;;;;4998886;28;20061;-67
2021/07/15 01:30:15;;;;;;;38.83;25.42;;;19.40;99.90;;;;;;4997777;28;20057;-68
2021/07/15 01:33:00;;;;;;;38.88;24.02;;;19.40;99.90;;;;;;5005712;28;20046;-68
2021/07/15 01:35:31;;;;;;;41.63;23.65;;;19.50;99.90;;;;;;5004985;28;20047;-68
2021/07/15 01:38:00;;;;;;;49.00;25.50;;;19.40;99.90;;;;;;4995290;28;20059;-67
2021/07/15 01:40:33;;;;;;;44.17;25.60;;;19.50;99.90;;;;;;4999736;28;20081;-68
2021/07/15 01:43:04;;;;;;;47.80;24.67;;;19.50;99.90;;;;;;5006135;28;20110;-67
2021/07/15 01:45:31;;;;;;;40.72;23.95;;;19.50;99.90;;;;;;5000097;28;20050;-68
2021/07/15 01:47:57;;;;;;;36.30;21.02;;;19.50;99.90;;;;;;4999820;28;20122;-68
2021/07/15 01:50:22;;;;;;;33.53;18.95;;;19.50;99.90;;;;;;5006276;28;20046;-68
2021/07/15 01:52:51;;;;;;;40.75;22.92;;;19.50;99.90;;;;;;4998695;28;20042;-68
2021/07/15 01:55:17;;;;;;;38.03;21.35;;;19.40;99.90;;;;;;5001007;28;20047;-68
2021/07/15 01:57:44;;;;;;;43.38;23.60;;;19.50;99.90;;;;;;5005656;28;20073;-68
2021/07/15 02:00:10;;;;;;;37.40;24.03;;;19.50;99.90;;;;;;5005389;28;20066;-68
2021/07/15 02:02:38;;;;;;;38.20;22.02;;;19.40;99.90;;;;;;4991760;28;20515;-68
2021/07/15 02:05:06;;;;;;;36.33;21.17;;;19.40;99.90;;;;;;4996086;28;20043;-67
2021/07/15 02:07:33;;;;;;;42.92;20.23;;;19.40;99.90;;;;;;5005047;28;20049;-68
2021/07/15 02:10:00;;;;;;;42.38;21.70;;;19.40;99.90;;;;;;5005354;28;20050;-68
2021/07/15 02:12:28;;;;;;;39.15;20.08;;;19.40;99.90;;;;;;4998391;28;20050;-68
2021/07/15 02:14:54;;;;;;;28.02;17.85;;;19.40;99.90;;;;;;5005030;28;20434;-67
2021/07/15 02:17:22;;;;;;;41.47;20.88;;;19.30;99.90;;;;;;5005121;28;20049;-68
2021/07/15 02:19:49;;;;;;;34.85;19.10;;;19.40;99.90;;;;;;5005651;28;20043;-67
2021/07/15 02:22:16;;;;;;;45.35;20.05;;;19.30;99.90;;;;;;5004614;28;20057;-67
2021/07/15 02:24:46;;;;;;;41.40;17.95;;;19.30;99.90;;;;;;5005181;28;20042;-67
2021/07/15 02:27:13;;;;;;;38.05;20.33;;;19.30;99.90;;;;;;5004382;28;20513;-67
2021/07/15 02:29:39;;;;;;;29.38;15.80;;;19.30;99.90;;;;;;4994673;28;20066;-67
2021/07/15 02:32:08;;;;;;;40.22;19.73;;;19.30;99.90;;;;;;4993698;28;20070;-67
2021/07/15 02:34:50;;;;;;;38.13;20.17;;;19.30;99.90;;;;;;4991494;28;20063;-68
2021/07/15 02:37:19;;;;;;;43.25;18.73;;;19.30;99.90;;;;;;4994024;28;20160;-67
2021/07/15 02:39:45;;;;;;;36.15;17.95;;;19.30;99.90;;;;;;5004107;28;20121;-68
2021/07/15 02:42:11;;;;;;;37.38;19.35;;;19.30;99.90;;;;;;5005036;28;20112;-68
2021/07/15 02:44:39;;;;;;;34.10;18.05;;;19.30;99.90;;;;;;5004848;28;20069;-68
2021/07/15 02:47:09;;;;;;;31.98;18.38;;;19.30;99.90;;;;;;5004397;28;20110;-68
2021/07/15 02:49:39;;;;;;;30.85;14.90;;;19.30;99.90;;;;;;5004810;28;20046;-67
2021/07/15 02:52:06;;;;;;;29.13;14.18;;;19.20;99.90;;;;;;5004948;28;20046;-67
2021/07/15 02:54:32;;;;;;;30.63;14.75;;;19.20;99.90;;;;;;5001320;28;20035;-67
2021/07/15 02:57:29;;;;;;;39.33;15.88;;;19.20;99.90;;;;;;5003457;28;20049;-67
2021/07/15 03:00:05;;;;;;;38.38;16.15;;;19.20;99.90;;;;;;4943944;29;20079;-67
2021/07/15 03:02:37;;;;;;;34.00;14.57;;;19.20;99.90;;;;;;4944000;29;20519;-68
2021/07/15 03:05:19;;;;;;;36.25;16.10;;;19.10;99.90;;;;;;4944673;29;20055;-68
2021/07/15 03:07:52;;;;;;;38.22;16.27;;;19.20;99.90;;;;;;4942082;29;20051;-67
2021/07/15 03:10:20;;;;;;;28.70;13.40;;;19.20;99.90;;;;;;4942751;29;20098;-68
2021/07/15 03:12:47;;;;;;;38.17;15.45;;;19.10;99.90;;;;;;4944185;29;20044;-67
2021/07/15 03:15:13;;;;;;;27.88;15.52;;;19.10;99.90;;;;;;4944420;29;20583;-67
2021/07/15 03:17:43;;;;;;;32.00;14.93;;;19.10;99.90;;;;;;4939828;29;20067;-67
2021/07/15 03:20:15;;;;;;;30.92;15.20;;;19.10;99.90;;;;;;4943172;29;20062;-67
2021/07/15 03:22:44;;;;;;;35.65;17.20;;;19.10;99.90;;;;;;4944114;29;20055;-67
2021/07/15 03:25:14;;;;;;;32.30;15.80;;;19.10;99.90;;;;;;4943811;29;20060;-67
2021/07/15 03:27:45;;;;;;;36.25;17.30;;;19.10;99.90;;;;;;4943818;29;20131;-68
2021/07/15 03:30:12;;;;;;;37.42;17.40;;;19.00;99.90;;;;;;4942348;29;20236;-67
2021/07/15 03:32:38;;;;;;;;;;;19.00;99.90;;;;;;4944210;29;20061;-67
2021/07/15 03:35:06;;;;;;;32.35;15.93;;;18.90;99.90;;;;;;4942945;29;19922;-67
2021/07/15 03:37:34;;;;;;;35.28;17.17;;;18.90;99.90;;;;;;4992246;28;20062;-67
2021/07/15 03:40:00;;;;;;;32.50;16.48;;;18.90;99.90;;;;;;5002309;28;20043;-67
2021/07/15 03:42:28;;;;;;;29.90;15.07;;;18.90;99.90;;;;;;5003428;28;20134;-67
2021/07/15 03:44:56;;;;;;;33.17;16.45;;;18.90;99.90;;;;;;5004112;28;20529;-67
2021/07/15 03:47:23;;;;;;;34.53;15.73;;;18.90;99.90;;;;;;5001659;28;20042;-67
2021/07/15 03:49:50;;;;;;;38.10;15.32;;;18.80;99.90;;;;;;5003764;28;20129;-68
2021/07/15 03:52:17;;;;;;;22.43;13.37;;;18.80;99.90;;;;;;5002568;28;20065;-67
2021/07/15 03:54:45;;;;;;;33.05;16.17;;;18.80;99.90;;;;;;5003523;28;20321;-67
2021/07/15 03:57:12;;;;;;;37.22;16.55;;;18.80;99.90;;;;;;5003280;28;20050;-67
2021/07/15 03:59:49;;;;;;;31.58;14.93;;;18.80;99.90;;;;;;5004167;28;20307;-67
2021/07/15 04:02:17;;;;;;;26.88;15.70;;;18.80;99.90;;;;;;5001045;28;20505;-68
2021/07/15 04:04:48;;;;;;;39.50;15.40;;;18.80;99.90;;;;;;5003524;28;20042;-67
2021/07/15 04:07:17;;;;;;;43.03;15.60;;;18.80;99.90;;;;;;5003058;28;20050;-67
2021/07/15 04:09:45;;;;;;;32.42;15.52;;;18.80;99.90;;;;;;4993078;28;20042;-67
2021/07/15 04:12:12;;;;;;;34.80;16.10;;;18.80;99.90;;;;;;5003386;28;20071;-67
2021/07/15 04:14:50;;;;;;;34.85;16.05;;;18.80;99.90;;;;;;4992666;28;20096;-68
2021/07/15 04:17:16;;;;;;;36.33;15.60;;;18.80;99.90;;;;;;4996091;28;20043;-68
2021/07/15 04:19:43;;;;;;;34.50;15.93;;;18.80;99.90;;;;;;4996694;28;20061;-67
2021/07/15 04:22:12;;;;;;;39.35;16.55;;;18.80;99.90;;;;;;5003674;28;20081;-68
2021/07/15 04:24:43;;;;;;;33.35;16.25;;;18.80;99.90;;;;;;4998050;28;20046;-67
2021/07/15 04:27:10;;;;;;;33.53;18.27;;;18.80;99.90;;;;;;4995513;28;20042;-67
2021/07/15 04:29:39;;;;;;;37.08;16.42;;;18.80;99.90;;;;;;5002120;28;20066;-68
2021/07/15 04:32:05;;;;;;;39.00;15.73;;;18.80;99.90;;;;;;5003105;28;20047;-67
2021/07/15 04:34:33;;;;;;;46.13;17.73;;;18.70;99.90;;;;;;4998699;28;20502;-67
2021/07/15 04:37:00;;;;;;;34.85;16.15;;;18.80;99.90;;;;;;4995299;28;20074;-67
2021/07/15 04:39:27;;;;;;;38.20;16.80;;;18.80;99.90;;;;;;4994581;28;20047;-67
2021/07/15 04:41:55;;;;;;;39.65;16.98;;;18.80;99.90;;;;;;5001362;28;20351;-67
2021/07/15 04:44:22;;;;;;;34.08;17.20;;;18.80;99.90;;;;;;4996157;28;20050;-67
2021/07/15 04:46:51;;;;;;;45.60;17.02;;;18.80;99.90;;;;;;4992801;28;20049;-67
2021/07/15 04:49:18;;;;;;;34.10;14.80;;;18.70;99.90;;;;;;4992788;28;20462;-67
2021/07/15 04:51:46;;;;;;;37.28;15.70;;;18.70;99.90;;;;;;5000459;28;20055;-67
2021/07/15 04:54:14;;;;;;;37.20;17.88;;;18.70;99.90;;;;;;4991927;28;20552;-67
2021/07/15 04:56:41;;;;;;;49.95;19.05;;;18.80;99.90;;;;;;4997493;28;20038;-67
2021/07/15 04:59:07;;;;;;;33.75;17.17;;;18.70;99.90;;;;;;5002314;28;20043;-67
2021/07/15 05:01:34;;;;;;;27.95;16.63;;;18.70;99.90;;;;;;5002307;28;20042;-67
2021/07/15 05:04:01;;;;;;;38.22;16.50;;;18.70;99.90;;;;;;4999955;28;20118;-67
2021/07/15 05:06:27;;;;;;;36.78;14.45;;;18.70;99.90;;;;;;5001820;28;20077;-67
2021/07/15 05:08:52;;;;;;;35.25;15.43;;;18.70;99.90;;;;;;4998689;28;20038;-67
2021/07/15 05:11:18;;;;;;;36.67;14.95;;;18.70;99.90;;;;;;4989335;28;20431;-67
2021/07/15 05:13:44;;;;;;;35.95;15.07;;;18.70;99.90;;;;;;4986640;28;20084;-67
2021/07/15 05:16:10;;;;;;;37.83;14.68;;;18.70;99.90;;;;;;4997994;28;20051;-67
2021/07/15 05:18:36;;;;;;;26.70;12.52;;;18.70;99.90;;;;;;4995885;28;20042;-68
2021/07/15 05:21:02;;;;;;;27.30;13.40;;;18.70;99.90;;;;;;5002099;28;20043;-68
2021/07/15 05:23:28;;;;;;;30.23;12.75;;;18.70;99.90;;;;;;4998507;28;20045;-68
2021/07/15 05:25:54;;;;;;;27.85;12.60;;;18.70;99.90;;;;;;4997615;28;20051;-68
2021/07/15 05:28:21;;;;;;;39.33;13.40;;;18.70;99.90;;;;;;4990449;28;20054;-69
2021/07/15 05:30:47;;;;;;;39.00;14.27;;;18.70;99.90;;;;;;4996977;28;20050;-69
2021/07/15 05:33:13;;;;;;;41.78;15.80;;;18.70;99.90;;;;;;4989143;28;20317;-69
2021/07/15 05:35:40;;;;;;;33.10;13.73;;;18.70;99.90;;;;;;4994078;28;20065;-69
2021/07/15 05:38:06;;;;;;;33.60;15.48;;;18.70;99.90;;;;;;5002093;28;20043;-68
2021/07/15 05:40:32;;;;;;;38.35;15.80;;;18.70;99.90;;;;;;4991311;28;20081;-68
2021/07/15 05:42:58;;;;;;;31.45;14.80;;;18.70;99.90;;;;;;4997579;28;20625;-68
2021/07/15 05:45:24;;;;;;;36.45;14.80;;;18.70;99.90;;;;;;5001557;28;20070;-68
2021/07/15 05:47:50;;;;;;;27.83;13.13;;;18.70;99.90;;;;;;4996706;28;20057;-68
2021/07/15 05:50:16;;;;;;;23.02;12.30;;;18.70;99.90;;;;;;4998010;28;20042;-68
2021/07/15 05:52:42;;;;;;;27.85;13.65;;;18.70;99.90;;;;;;4993343;28;20035;-68
2021/07/15 05:55:08;;;;;;;38.92;15.82;;;18.70;99.90;;;;;;4999794;28;20489;-68
2021/07/15 05:57:34;;;;;;;36.10;15.90;;;18.70;99.90;;;;;;4998249;28;20046;-68
2021/07/15 06:00:00;;;;;;;41.25;14.70;;;18.70;99.90;;;;;;4991571;28;20078;-68
2021/07/15 06:02:26;;;;;;;37.40;14.82;;;18.80;99.90;;;;;;4996766;28;20069;-68
2021/07/15 06:04:52;;;;;;;29.95;12.95;;;18.70;99.90;;;;;;5000864;28;20609;-68
2021/07/15 06:07:18;;;;;;;31.00;14.10;;;18.70;99.90;;;;;;5000206;28;20057;-68
2021/07/15 06:09:43;;;;;;;26.95;11.95;;;18.70;99.90;;;;;;4994553;28;20055;-68
2021/07/15 06:12:10;;;;;;;31.10;13.48;;;18.70;99.90;;;;;;4988145;28;20133;-68
2021/07/15 06:14:36;;;;;;;31.27;13.15;;;18.70;99.90;;;;;;5003341;28;20076;-68
2021/07/15 06:17:02;;;;;;;35.58;13.40;;;18.80;99.90;;;;;;4994776;28;20079;-68
2021/07/15 06:19:28;;;;;;;25.48;11.02;;;18.70;99.90;;;;;;4995893;28;20042;-67
2021/07/15 06:21:54;;;;;;;31.88;12.68;;;18.70;99.90;;;;;;5005113;28;20042;-67
2021/07/15 06:24:20;;;;;;;33.90;13.20;;;18.70;99.90;;;;;;5004629;28;20081;-67
2021/07/15 06:26:48;;;;;;;38.08;11.48;;;18.80;99.90;;;;;;5005298;28;20050;-69
2021/07/15 06:29:14;;;;;;;21.20;10.30;;;18.70;99.90;;;;;;4993613;28;20042;-68
2021/07/15 06:31:40;;;;;;;30.88;9.45;;;18.70;99.90;;;;;;5003774;28;20046;-67
2021/07/15 06:34:06;;;;;;;27.08;11.20;;;18.70;99.90;;;;;;5004274;28;20058;-68
2021/07/15 06:36:32;;;;;;;24.23;10.13;;;18.70;99.90;;;;;;4990327;28;20094;-68
2021/07/15 06:38:59;;;;;;;24.33;10.93;;;18.70;99.90;;;;;;4999401;28;20078;-68
2021/07/15 06:41:24;;;;;;;28.45;10.82;;;18.70;99.90;;;;;;5000006;28;20042;-69
2021/07/15 06:43:50;;;;;;;33.30;11.63;;;18.70;99.90;;;;;;5004870;28;20569;-68
2021/07/15 06:46:16;;;;;;;28.25;10.88;;;18.70;99.90;;;;;;5003463;28;20053;-69
2021/07/15 06:48:43;;;;;;;26.85;10.63;;;18.70;99.90;;;;;;5005094;28;20042;-69
2021/07/15 06:51:09;;;;;;;42.03;12.18;;;18.70;99.90;;;;;;5005052;28;20050;-68
2021/07/15 06:53:35;;;;;;;25.77;11.30;;;18.60;99.90;;;;;;5004035;28;20058;-69
2021/07/15 06:56:01;;;;;;;39.63;11.85;;;18.60;99.90;;;;;;4991554;28;20511;-68
2021/07/15 06:58:28;;;;;;;37.97;12.23;;;18.60;99.90;;;;;;4995394;28;20047;-68
2021/07/15 07:00:57;;;;;;;37.20;12.15;;;18.50;99.90;;;;;;4991692;28;20095;-68
2021/07/15 07:03:23;;;;;;;39.88;11.70;;;18.50;99.90;;;;;;4989285;28;20077;-68
2021/07/15 07:05:54;;;;;;;25.92;9.15;;;18.50;99.90;;;;;;4995830;28;20065;-68
2021/07/15 07:08:20;;;;;;;32.33;10.82;;;18.50;99.90;;;;;;4992903;28;20421;-69
2021/07/15 07:10:46;;;;;;;32.60;11.23;;;18.50;99.90;;;;;;4996953;28;20188;-69
2021/07/15 07:13:12;;;;;;;33.38;10.15;;;18.50;99.90;;;;;;4990010;28;20553;-69
2021/07/15 07:15:37;;;;;;;39.50;11.80;;;18.50;99.90;;;;;;4991912;28;20046;-68
2021/07/15 07:18:03;;;;;;;27.27;11.23;;;18.40;99.90;;;;;;4991238;28;20062;-68
2021/07/15 07:20:29;;;;;;;33.88;13.25;;;18.40;99.90;;;;;;4993148;28;20046;-67
2021/07/15 07:22:55;;;;;;;29.90;10.93;;;18.40;99.90;;;;;;4992776;28;20101;-68
2021/07/15 07:25:21;;;;;;;28.63;10.73;;;18.30;99.90;;;;;;4988421;28;20066;-68
2021/07/15 07:27:47;;;;;;;33.83;11.20;;;18.30;99.90;;;;;;4988509;28;20077;-67
2021/07/15 07:30:16;;;;;;;32.45;12.35;;;18.30;99.90;;;;;;4993031;28;20108;-70
2021/07/15 07:32:43;;;;;;;31.52;12.25;;;18.20;99.90;;;;;;4993445;28;20042;-69
2021/07/15 07:35:09;;;;;;;27.20;12.02;;;18.20;99.90;;;;;;4989609;28;20046;-68
2021/07/15 07:37:35;;;;;;;28.20;11.55;;;18.20;99.90;;;;;;4995347;28;20042;-68
2021/07/15 07:40:02;;;;;;;36.88;13.80;;;18.10;99.90;;;;;;5001192;28;20073;-68
2021/07/15 07:42:28;;;;;;;30.70;13.88;;;18.10;99.90;;;;;;4987079;28;20070;-68
2021/07/15 07:44:53;;;;;;;29.95;12.32;;;18.10;99.90;;;;;;4987657;28;20426;-68
2021/07/15 07:47:19;;;;;;;41.75;13.05;;;18.10;99.90;;;;;;4996210;28;20034;-69
2021/07/15 07:49:45;;;;;;;41.60;13.32;;;18.10;99.90;;;;;;5002367;28;20042;-68
2021/07/15 07:52:11;;;;;;;34.00;12.10;;;18.20;99.90;;;;;;4991159;28;20068;-67
2021/07/15 07:54:37;;;;;;;31.02;12.40;;;18.20;99.90;;;;;;4997773;28;20057;-67
2021/07/15 07:57:03;;;;;;;32.40;13.13;;;18.30;99.90;;;;;;5003005;28;20184;-67
2021/07/15 07:59:29;;;;;;;30.73;12.93;;;18.30;99.90;;;;;;4997072;28;20050;-69
2021/07/15 08:01:54;;;;;;;26.23;11.95;;;18.30;99.90;;;;;;4995853;28;20046;-67
2021/07/15 08:04:20;;;;;;;28.65;11.55;;;18.30;99.90;;;;;;4987345;28;20056;-68
2021/07/15 08:06:48;;;;;;;33.33;10.52;;;18.30;99.90;;;;;;4997205;28;20039;-67
2021/07/15 08:09:16;;;;;;;34.75;13.90;;;18.30;99.90;;;;;;4992257;28;20054;-68
2021/07/15 08:11:47;;;;;;;31.00;10.65;;;18.30;99.90;;;;;;4993271;28;20513;-68
2021/07/15 08:14:13;;;;;;;31.50;12.05;;;18.30;99.90;;;;;;4998871;28;20042;-68
2021/07/15 08:16:39;;;;;;;26.40;12.07;;;18.30;99.90;;;;;;4986072;28;20039;-67
2021/07/15 08:19:05;;;;;;;29.40;12.60;;;18.30;99.90;;;;;;4997016;28;20239;-67
2021/07/15 08:21:31;;;;;;;32.20;12.55;;;18.40;99.90;;;;;;4992234;28;20046;-67
2021/07/15 08:23:58;;;;;;;50.58;14.30;;;18.40;99.90;;;;;;4998251;28;20046;-67
2021/07/15 08:26:24;;;;;;;27.15;11.27;;;18.40;99.90;;;;;;4986880;28;20133;-67
2021/07/15 08:28:50;;;;;;;29.05;11.63;;;18.40;99.90;;;;;;4992153;28;20127;-67
2021/07/15 08:31:16;;;;;;;38.28;12.65;;;18.40;99.90;;;;;;4994097;28;20044;-67
2021/07/15 08:33:42;;;;;;;38.50;13.10;;;18.40;99.90;;;;;;4995264;28;20093;-67
2021/07/15 08:36:08;;;;;;;44.20;13.15;;;18.40;99.90;;;;;;4994295;28;20039;-67
2021/07/15 08:38:33;;;;;;;38.35;13.45;;;18.40;99.90;;;;;;4999742;28;20042;-67
2021/07/15 08:40:59;;;;;;;28.85;11.27;;;18.40;99.90;;;;;;4998640;28;20100;-68
2021/07/15 08:43:25;;;;;;;27.52;11.68;;;18.40;99.90;;;;;;4991718;28;20102;-68
2021/07/15 08:45:51;;;;;;;25.17;10.73;;;18.30;99.90;;;;;;4995518;28;20042;-68
2021/07/15 08:48:20;;;;;;;27.23;10.47;;;18.30;99.90;;;;;;4993705;28;20113;-68
2021/07/15 08:50:50;;;;;;;26.88;11.02;;;18.30;99.90;;;;;;4995477;28;20055;-68
2021/07/15 08:53:18;;;;;;;28.00;11.57;;;18.20;99.90;;;;;;4986106;28;20051;-68
2021/07/15 08:58:15;;;;;;;31.85;11.65;;;18.10;99.90;;;;;;4998430;28;20434;-67
2021/07/15 09:00:42;;;;;;;28.80;12.85;;;18.00;99.90;;;;;;4990514;28;20038;-67
2021/07/15 09:03:09;;;;;;;28.60;12.68;;;17.90;99.90;;;;;;4993481;28;20050;-67
2021/07/15 09:05:36;;;;;;;27.40;11.73;;;17.90;99.90;;;;;;5004315;28;20133;-67
2021/07/15 09:08:02;;;;;;;34.58;11.88;;;17.80;99.90;;;;;;4992694;28;20062;-69
2021/07/15 09:10:29;;;;;;;35.08;12.02;;;17.80;99.90;;;;;;5000464;28;20673;-68
2021/07/15 09:12:57;;;;;;;31.35;11.38;;;17.70;99.90;;;;;;5003983;28;20047;-67
2021/07/15 09:15:23;;;;;;;26.10;11.02;;;17.70;99.90;;;;;;5002725;28;20131;-67
2021/07/15 09:17:49;;;;;;;20.80;10.98;;;17.70;99.90;;;;;;5003013;28;21204;-68
2021/07/15 09:20:21;;;;;;;21.70;11.05;;;17.60;99.90;;;;;;5001029;28;20134;-68
2021/07/15 09:22:57;;;;;;;29.88;15.15;;;17.60;99.90;;;;;;4989976;28;20046;-69
2021/07/15 09:25:23;;;;;;;39.33;15.43;;;17.60;99.90;;;;;;4992509;28;20066;-69
2021/07/15 09:27:49;;;;;;;36.95;13.90;;;17.60;99.90;;;;;;4989774;28;20058;-70
2021/07/15 09:30:17;;;;;;;40.10;15.07;;;17.60;99.90;;;;;;4996150;28;20034;-69
2021/07/15 09:32:51;;;;;;;22.52;11.75;;;17.60;99.90;;;;;;4993294;28;20042;-69
2021/07/15 09:35:27;;;;;;;43.05;12.45;;;17.60;99.90;;;;;;4998072;28;20055;-69
2021/07/15 09:37:54;;;;;;;32.55;13.25;;;17.60;99.90;;;;;;4995806;28;20048;-70
2021/07/15 09:40:44;;;;;;;32.03;12.43;;;17.60;99.90;;;;;;4992592;28;20491;-69
2021/07/15 09:43:27;;;;;;;36.92;13.77;;;17.70;99.90;;;;;;4998023;28;20042;-69
2021/07/15 09:45:55;;;;;;;37.67;14.93;;;17.70;99.90;;;;;;4992142;28;20068;-69
2021/07/15 09:48:23;;;;;;;42.75;16.33;;;17.70;99.90;;;;;;4998342;28;20110;-67
2021/07/15 09:50:52;;;;;;;33.58;12.13;;;17.70;99.90;;;;;;4992171;28;20062;-67
2021/07/15 09:53:22;;;;;;;38.28;14.60;;;17.70;99.90;;;;;;4992883;28;20073;-69
2021/07/15 09:55:58;;;;;;;24.70;11.88;;;17.70;99.90;;;;;;4989629;28;20062;-68
2021/07/15 09:58:24;;;;;;;32.30;14.05;;;17.70;99.90;;;;;;4990270;28;20133;-70
2021/07/15 10:00:51;;;;;;;36.80;13.60;;;17.80;99.90;;;;;;4996798;28;20555;-70
2021/07/15 10:03:17;;;;;;;33.30;13.07;;;17.80;99.90;;;;;;4989777;28;20043;-67
2021/07/15 10:05:54;;;;;;;27.50;12.57;;;17.80;99.90;;;;;;4998454;28;20101;-67
2021/07/15 10:08:28;;;;;;;30.13;11.65;;;17.80;99.90;;;;;;4989398;28;20051;-68
2021/07/15 10:11:14;;;;;;;33.60;12.80;;;17.80;99.90;;;;;;5002385;28;20080;-64
2021/07/15 10:13:41;;;;;;;25.50;12.70;;;17.80;99.90;;;;;;4992898;28;20052;-64
2021/07/15 10:16:08;;;;;;;24.98;10.98;;;17.80;99.90;;;;;;4990375;28;20133;-72
2021/07/15 10:18:35;;;;;;;37.47;12.63;;;17.80;99.90;;;;;;4999008;28;20042;-74
2021/07/15 10:21:00;;;;;;;40.60;14.63;;;17.90;99.90;;;;;;5004377;28;20038;-68
2021/07/15 10:23:35;;;;;;;28.23;12.25;;;17.80;99.90;;;;;;4999941;28;20050;-69
2021/07/15 10:26:02;;;;;;;39.35;14.55;;;17.80;99.90;;;;;;5000059;28;20045;-73
2021/07/15 10:28:29;;;;;;;32.15;12.68;;;17.80;99.90;;;;;;4993301;28;20058;-74
2021/07/15 10:31:15;;;;;;;28.65;11.20;;;17.80;99.90;;;;;;4996065;28;20057;-69
2021/07/15 10:33:42;;;;;;;37.88;13.43;;;17.90;99.90;;;;;;5002282;28;20121;-69
2021/07/15 10:36:09;;;;;;;23.13;10.85;;;17.90;99.90;;;;;;5001630;28;20050;-64
2021/07/15 10:38:40;;;;;;;32.53;12.93;;;17.90;99.90;;;;;;4995203;28;20057;-68
2021/07/15 10:41:08;;;;;;;27.58;10.88;;;18.00;99.90;;;;;;4991986;28;21017;-67
2021/07/15 10:43:35;;;;;;;25.42;11.70;;;18.10;99.90;;;;;;4995434;28;20406;-68
2021/07/15 10:46:04;;;;;;;24.25;11.18;;;18.10;99.90;;;;;;4993827;28;20051;-68
2021/07/15 10:48:35;;;;;;;27.33;10.35;;;18.20;99.90;;;;;;4999963;28;20042;-68
2021/07/15 10:51:02;;;;;;;21.55;8.15;;;18.30;99.90;;;;;;4988678;28;20046;-67
2021/07/15 10:53:29;;;;;;;28.88;12.02;;;18.30;99.90;;;;;;4998442;28;20046;-67
2021/07/15 10:55:55;;;;;;;27.27;11.53;;;18.40;99.90;;;;;;4999997;28;20073;-74
2021/07/15 10:58:46;;;;;;;23.75;12.60;;;18.50;99.90;;;;;;4997012;28;20317;-68
2021/07/15 11:04:22;;;;;;;29.67;13.25;;;18.50;99.90;;;;;;4993993;28;20053;-70
2021/07/15 11:06:53;;;;;;;24.77;9.90;;;18.50;99.90;;;;;;5000860;28;20422;-69
2021/07/15 11:09:33;;;;;;;28.92;10.57;;;18.40;99.90;;;;;;5000879;28;20057;-71
2021/07/15 11:12:01;;;;;;;29.65;11.20;;;18.40;99.90;;;;;;5000437;28;20046;-68
2021/07/15 11:14:37;;;;;;;32.58;13.20;;;18.30;99.90;;;;;;4992048;28;20050;-74
2021/07/15 11:17:24;;;;;;;25.52;12.10;;;18.40;99.90;;;;;;4998654;28;20054;-70
2021/07/15 11:20:08;;;;;;;24.88;11.25;;;18.30;99.90;;;;;;4995040;28;20091;-70
2021/07/15 11:22:45;;;;;;;25.98;12.30;;;18.30;99.90;;;;;;5001154;28;20046;-75
2021/07/15 11:25:28;;;;;;;34.65;13.35;;;18.40;99.90;;;;;;4987494;28;20046;-76
2021/07/15 11:28:23;;;;;;;33.80;11.88;;;18.40;99.90;;;;;;4991872;28;20050;-77
2021/07/15 11:30:57;;;;;;;24.23;11.48;;;18.40;99.90;;;;;;4987833;28;20054;-71
2021/07/15 11:33:22;;;;;;;21.45;12.27;;;18.30;99.90;;;;;;4991568;28;20076;-69
2021/07/15 11:36:00;;;;;;;23.30;11.57;;;18.20;99.90;;;;;;4996386;28;20051;-69
2021/07/15 11:38:29;;;;;;;29.90;13.55;;;18.10;99.90;;;;;;5002738;28;20098;-73
2021/07/15 11:41:00;;;;;;;31.45;14.88;;;18.10;99.90;;;;;;4991466;28;20053;-67
2021/07/15 11:43:55;;;;;;;23.98;12.63;;;18.10;99.90;;;;;;4988548;28;20068;-66
2021/07/15 11:46:40;;;;;;;32.90;14.15;;;18.10;99.90;;;;;;4988738;28;20054;-66
2021/07/15 11:49:16;;;;;;;32.40;13.65;;;18.10;99.90;;;;;;4989752;28;20046;-73
2021/07/15 11:52:05;;;;;;;33.00;12.88;;;18.20;99.90;;;;;;4987703;28;20055;-69
2021/07/15 11:54:43;;;;;;;25.50;10.98;;;18.20;99.90;;;;;;4992685;28;20126;-66
2021/07/15 11:57:12;;;;;;;33.47;12.95;;;18.20;99.90;;;;;;4990084;28;20089;-66
2021/07/15 11:59:49;;;;;;;23.85;9.07;;;18.30;99.90;;;;;;4990782;28;20581;-67
2021/07/15 12:02:24;;;;;;;19.85;10.20;;;18.30;99.90;;;;;;4986730;28;20039;-67
2021/07/15 12:05:32;;;;;;;26.65;11.57;;;18.30;99.90;;;;;;4995429;28;20415;-68
2021/07/15 12:08:04;;;;;;;26.90;12.80;;;18.30;99.90;;;;;;4994227;28;20046;-68
2021/07/15 12:10:35;;;;;;;19.05;10.25;;;18.40;99.90;;;;;;4998197;28;20129;-68
2021/07/15 12:13:06;;;;;;;30.02;12.18;;;18.40;99.90;;;;;;4987146;28;20038;-71
2021/07/15 12:15:33;;;;;;;27.90;12.07;;;18.40;99.90;;;;;;4986197;28;20062;-71
2021/07/15 12:18:10;;;;;;;21.48;11.00;;;18.40;99.90;;;;;;4990129;28;20052;-71
2021/07/15 12:20:52;;;;;;;24.13;10.88;;;18.50;99.90;;;;;;4992219;28;20042;-70
2021/07/15 12:23:40;;;;;;;24.13;9.45;;;18.50;99.90;;;;;;4991672;28;20056;-73
2021/07/15 12:26:09;;;;;;;18.50;8.43;;;18.50;99.90;;;;;;4988327;28;20047;-73
2021/07/15 12:28:35;;;;;;;24.35;8.98;;;18.40;99.90;;;;;;4995303;28;20118;-73
2021/07/15 12:31:06;;;;;;;20.73;10.23;;;18.40;99.90;;;;;;4997750;28;20061;-69
2021/07/15 12:34:02;;;;;;;22.77;10.45;;;18.50;99.90;;;;;;4994070;28;20046;-70
2021/07/15 12:36:28;;;;;;;20.45;8.90;;;18.40;99.90;;;;;;4980367;28;20082;-68
2021/07/15 12:39:02;;;;;;;23.63;10.85;;;18.40;99.90;;;;;;4996304;28;20062;-74
2021/07/15 12:41:33;;;;;;;24.95;10.88;;;18.40;99.90;;;;;;4991604;28;20050;-72
2021/07/15 12:44:00;;;;;;;23.77;10.07;;;18.50;99.90;;;;;;4994525;28;20035;-70